sensor_id;sensor_type;location;lat;lon;timestamp;temperature;humidity
29207;DHT22;16247;50.840;4.382;2023-06-24T00:00:37;22.10;99.90
29207;DHT22;16247;50.840;4.382;2023-06-24T00:03:04;22.00;99.90
29207;DHT22;16247;50.840;4.382;2023-06-24T00:05:34;22.00;99.90
29207;DHT22;16247;50.840;4.382;2023-06-24T00:08:00;21.80;99.90
29207;DHT22;16247;50.840;4.382;2023-06-24T00:10:28;21.90;99.90
29207;DHT22;16247;50.840;4.382;2023-06-24T00:12:56;21.70;99.90
29207;DHT22;16247;50.840;4.382;2023-06-24T00:15:25;21.80;99.90
29207;DHT22;16247;50.840;4.382;2023-06-24T00:17:50;21.80;99.90
29207;DHT22;16247;50.840;4.382;2023-06-24T00:20:16;21.80;99.90
29207;DHT22;16247;50.840;4.382;2023-06-24T00:22:43;21.70;99.90
29207;DHT22;16247;50.840;4.382;2023-06-24T00:25:12;21.70;99.90
29207;DHT22;16247;50.840;4.382;2023-06-24T00:27:37;21.70;99.90
29207;DHT22;16247;50.840;4.382;2023-06-24T00:30:03;21.70;99.90
29207;DHT22;16247;50.840;4.382;2023-06-24T00:32:35;21.60;99.90
29207;DHT22;16247;50.840;4.382;2023-06-24T00:35:04;21.50;99.90
29207;DHT22;16247;50.840;4.382;2023-06-24T00:37:42;21.50;99.90
29207;DHT22;16247;50.840;4.382;2023-06-24T00:40:18;21.30;99.90
29207;DHT22;16247;50.840;4.382;2023-06-24T00:42:45;21.40;99.90
29207;DHT22;16247;50.840;4.382;2023-06-24T00:45:12;21.60;99.90
29207;DHT22;16247;50.840;4.382;2023-06-24T00:47:48;21.40;99.90
29207;DHT22;16247;50.840;4.382;2023-06-24T00:50:17;21.60;99.90
29207;DHT22;16247;50.840;4.382;2023-06-24T00:52:44;21.10;99.90
29207;DHT22;16247;50.840;4.382;2023-06-24T00:55:24;21.10;99.90
29207;DHT22;16247;50.840;4.382;2023-06-24T00:57:52;21.20;99.90
29207;DHT22;16247;50.840;4.382;2023-06-24T01:00:22;21.10;99.90
29207;DHT22;16247;50.840;4.382;2023-06-24T01:02:50;21.00;99.90
29207;DHT22;16247;50.840;4.382;2023-06-24T01:05:21;21.00;99.90
29207;DHT22;16247;50.840;4.382;2023-06-24T01:11:12;20.80;99.90
29207;DHT22;16247;50.840;4.382;2023-06-24T01:13:41;20.90;99.90
29207;DHT22;16247;50.840;4.382;2023-06-24T01:16:10;20.80;99.90
29207;DHT22;16247;50.840;4.382;2023-06-24T01:18:43;20.80;99.90
29207;DHT22;16247;50.840;4.382;2023-06-24T01:21:48;20.80;99.90
29207;DHT22;16247;50.840;4.382;2023-06-24T01:24:47;20.80;99.90
29207;DHT22;16247;50.840;4.382;2023-06-24T01:27:57;20.80;99.90
29207;DHT22;16247;50.840;4.382;2023-06-24T01:33:54;20.50;99.90
29207;DHT22;16247;50.840;4.382;2023-06-24T01:36:28;20.40;99.90
29207;DHT22;16247;50.840;4.382;2023-06-24T01:39:04;20.50;99.90
29207;DHT22;16247;50.840;4.382;2023-06-24T01:41:36;20.50;99.90
29207;DHT22;16247;50.840;4.382;2023-06-24T01:44:04;20.30;99.90
29207;DHT22;16247;50.840;4.382;2023-06-24T01:46:30;20.10;99.90
29207;DHT22;16247;50.840;4.382;2023-06-24T01:49:01;20.20;99.90
29207;DHT22;16247;50.840;4.382;2023-06-24T01:51:30;20.20;99.90
29207;DHT22;16247;50.840;4.382;2023-06-24T01:54:07;20.00;99.90
29207;DHT22;16247;50.840;4.382;2023-06-24T01:56:38;20.00;99.90
29207;DHT22;16247;50.840;4.382;2023-06-24T01:59:09;19.90;99.90
29207;DHT22;16247;50.840;4.382;2023-06-24T02:01:37;19.90;99.90
29207;DHT22;16247;50.840;4.382;2023-06-24T02:04:08;20.00;99.90
29207;DHT22;16247;50.840;4.382;2023-06-24T02:06:39;20.00;99.90
29207;DHT22;16247;50.840;4.382;2023-06-24T02:09:08;19.90;99.90
29207;DHT22;16247;50.840;4.382;2023-06-24T02:11:36;20.00;99.90
29207;DHT22;16247;50.840;4.382;2023-06-24T02:14:05;19.90;99.90
29207;DHT22;16247;50.840;4.382;2023-06-24T02:16:33;19.90;99.90
29207;DHT22;16247;50.840;4.382;2023-06-24T02:19:01;19.80;99.90
29207;DHT22;16247;50.840;4.382;2023-06-24T02:21:28;19.70;99.90
29207;DHT22;16247;50.840;4.382;2023-06-24T02:23:54;19.70;99.90
29207;DHT22;16247;50.840;4.382;2023-06-24T02:26:22;19.70;99.90
29207;DHT22;16247;50.840;4.382;2023-06-24T02:28:54;19.50;99.90
29207;DHT22;16247;50.840;4.382;2023-06-24T02:34:01;19.40;99.90
29207;DHT22;16247;50.840;4.382;2023-06-24T02:36:45;19.40;99.90
29207;DHT22;16247;50.840;4.382;2023-06-24T02:39:14;19.50;99.90
29207;DHT22;16247;50.840;4.382;2023-06-24T02:41:48;19.30;99.90
29207;DHT22;16247;50.840;4.382;2023-06-24T02:44:17;19.50;99.90
29207;DHT22;16247;50.840;4.382;2023-06-24T02:46:46;19.30;99.90
29207;DHT22;16247;50.840;4.382;2023-06-24T02:49:19;19.30;99.90
29207;DHT22;16247;50.840;4.382;2023-06-24T02:51:47;19.20;99.90
29207;DHT22;16247;50.840;4.382;2023-06-24T02:54:22;19.10;99.90
29207;DHT22;16247;50.840;4.382;2023-06-24T03:12:24;19.10;99.90
29207;DHT22;16247;50.840;4.382;2023-06-24T03:14:54;19.00;99.90
29207;DHT22;16247;50.840;4.382;2023-06-24T03:17:24;19.00;99.90
29207;DHT22;16247;50.840;4.382;2023-06-24T03:19:51;19.10;99.90
29207;DHT22;16247;50.840;4.382;2023-06-24T03:22:24;19.00;99.90
29207;DHT22;16247;50.840;4.382;2023-06-24T03:24:50;18.90;99.90
29207;DHT22;16247;50.840;4.382;2023-06-24T03:27:17;18.80;99.90
29207;DHT22;16247;50.840;4.382;2023-06-24T03:35:33;18.80;99.90
29207;DHT22;16247;50.840;4.382;2023-06-24T03:41:47;18.70;99.90
29207;DHT22;16247;50.840;4.382;2023-06-24T03:44:15;18.80;99.90
29207;DHT22;16247;50.840;4.382;2023-06-24T03:46:42;18.90;99.90
29207;DHT22;16247;50.840;4.382;2023-06-24T03:49:08;19.00;99.90
29207;DHT22;16247;50.840;4.382;2023-06-24T03:51:34;19.00;99.90
29207;DHT22;16247;50.840;4.382;2023-06-24T03:54:01;19.00;99.90
29207;DHT22;16247;50.840;4.382;2023-06-24T03:56:28;19.00;99.90
29207;DHT22;16247;50.840;4.382;2023-06-24T03:58:55;19.00;99.90
29207;DHT22;16247;50.840;4.382;2023-06-24T04:01:23;18.90;99.90
29207;DHT22;16247;50.840;4.382;2023-06-24T04:03:51;18.80;99.90
29207;DHT22;16247;50.840;4.382;2023-06-24T04:06:17;18.70;99.90
29207;DHT22;16247;50.840;4.382;2023-06-24T04:08:43;18.70;99.90
29207;DHT22;16247;50.840;4.382;2023-06-24T04:11:09;18.80;99.90
29207;DHT22;16247;50.840;4.382;2023-06-24T04:13:38;18.80;99.90
29207;DHT22;16247;50.840;4.382;2023-06-24T04:16:04;18.60;99.90
29207;DHT22;16247;50.840;4.382;2023-06-24T04:18:30;18.60;99.90
29207;DHT22;16247;50.840;4.382;2023-06-24T04:20:56;18.70;99.90
29207;DHT22;16247;50.840;4.382;2023-06-24T04:23:24;18.80;99.90
29207;DHT22;16247;50.840;4.382;2023-06-24T04:25:51;18.90;99.90
29207;DHT22;16247;50.840;4.382;2023-06-24T04:28:18;18.80;99.90
29207;DHT22;16247;50.840;4.382;2023-06-24T04:30:44;18.80;99.90
29207;DHT22;16247;50.840;4.382;2023-06-24T04:33:10;18.80;99.90
29207;DHT22;16247;50.840;4.382;2023-06-24T04:35:36;18.90;99.90
29207;DHT22;16247;50.840;4.382;2023-06-24T04:38:04;18.90;99.90
29207;DHT22;16247;50.840;4.382;2023-06-24T04:40:32;18.60;99.90
29207;DHT22;16247;50.840;4.382;2023-06-24T04:43:02;18.70;99.90
29207;DHT22;16247;50.840;4.382;2023-06-24T04:45:34;18.70;99.90
29207;DHT22;16247;50.840;4.382;2023-06-24T04:48:00;18.70;99.90
29207;DHT22;16247;50.840;4.382;2023-06-24T04:50:27;18.70;99.90
29207;DHT22;16247;50.840;4.382;2023-06-24T04:52:55;18.40;99.90
29207;DHT22;16247;50.840;4.382;2023-06-24T04:55:24;18.50;99.90
29207;DHT22;16247;50.840;4.382;2023-06-24T06:13:44;19.20;99.90
29207;DHT22;16247;50.840;4.382;2023-06-24T06:29:07;20.10;99.90
29207;DHT22;16247;50.840;4.382;2023-06-24T06:31:33;20.70;99.90
29207;DHT22;16247;50.840;4.382;2023-06-24T06:33:58;20.50;99.90
29207;DHT22;16247;50.840;4.382;2023-06-24T06:36:24;20.50;99.90
29207;DHT22;16247;50.840;4.382;2023-06-24T06:38:50;20.80;99.90
29207;DHT22;16247;50.840;4.382;2023-06-24T06:41:15;20.90;99.90
29207;DHT22;16247;50.840;4.382;2023-06-24T06:43:41;21.10;99.90
29207;DHT22;16247;50.840;4.382;2023-06-24T06:46:07;21.20;99.90
29207;DHT22;16247;50.840;4.382;2023-06-24T06:48:32;21.10;99.90
29207;DHT22;16247;50.840;4.382;2023-06-24T06:50:58;21.10;99.90
29207;DHT22;16247;50.840;4.382;2023-06-24T06:53:24;21.30;99.90
29207;DHT22;16247;50.840;4.382;2023-06-24T06:55:49;21.30;99.90
29207;DHT22;16247;50.840;4.382;2023-06-24T06:58:15;21.50;99.90
29207;DHT22;16247;50.840;4.382;2023-06-24T07:00:40;21.70;99.90
29207;DHT22;16247;50.840;4.382;2023-06-24T07:03:06;21.80;99.90
29207;DHT22;16247;50.840;4.382;2023-06-24T07:05:32;21.90;99.90
29207;DHT22;16247;50.840;4.382;2023-06-24T07:07:57;22.00;99.90
29207;DHT22;16247;50.840;4.382;2023-06-24T07:10:23;22.30;99.90
29207;DHT22;16247;50.840;4.382;2023-06-24T07:12:49;21.80;99.90
29207;DHT22;16247;50.840;4.382;2023-06-24T07:15:14;21.60;99.90
29207;DHT22;16247;50.840;4.382;2023-06-24T07:17:41;21.60;99.90
29207;DHT22;16247;50.840;4.382;2023-06-24T07:20:07;21.50;99.90
29207;DHT22;16247;50.840;4.382;2023-06-24T07:22:33;21.70;99.90
29207;DHT22;16247;50.840;4.382;2023-06-24T07:24:58;21.80;99.90
29207;DHT22;16247;50.840;4.382;2023-06-24T07:27:24;22.00;99.90
29207;DHT22;16247;50.840;4.382;2023-06-24T07:29:50;21.60;99.90
29207;DHT22;16247;50.840;4.382;2023-06-24T07:32:15;21.40;99.90
29207;DHT22;16247;50.840;4.382;2023-06-24T07:34:41;21.60;99.90
29207;DHT22;16247;50.840;4.382;2023-06-24T07:37:06;21.70;99.90
29207;DHT22;16247;50.840;4.382;2023-06-24T07:39:32;21.80;99.90
29207;DHT22;16247;50.840;4.382;2023-06-24T07:41:58;21.80;99.90
29207;DHT22;16247;50.840;4.382;2023-06-24T07:44:23;21.80;99.90
29207;DHT22;16247;50.840;4.382;2023-06-24T07:46:49;21.80;99.90
29207;DHT22;16247;50.840;4.382;2023-06-24T07:49:17;21.90;99.90
29207;DHT22;16247;50.840;4.382;2023-06-24T07:52:03;22.00;99.90
29207;DHT22;16247;50.840;4.382;2023-06-24T07:57:52;22.40;99.90
29207;DHT22;16247;50.840;4.382;2023-06-24T08:00:17;22.60;99.90
29207;DHT22;16247;50.840;4.382;2023-06-24T08:02:46;22.50;99.90
29207;DHT22;16247;50.840;4.382;2023-06-24T08:05:12;22.50;99.90
29207;DHT22;16247;50.840;4.382;2023-06-24T08:07:38;22.50;99.90
29207;DHT22;16247;50.840;4.382;2023-06-24T08:10:04;22.60;99.90
29207;DHT22;16247;50.840;4.382;2023-06-24T08:12:31;22.30;99.90
29207;DHT22;16247;50.840;4.382;2023-06-24T08:14:56;22.10;99.90
29207;DHT22;16247;50.840;4.382;2023-06-24T08:17:22;22.30;99.90
29207;DHT22;16247;50.840;4.382;2023-06-24T08:19:48;22.10;99.90
29207;DHT22;16247;50.840;4.382;2023-06-24T08:22:14;22.30;99.90
29207;DHT22;16247;50.840;4.382;2023-06-24T08:24:39;22.50;99.90
29207;DHT22;16247;50.840;4.382;2023-06-24T08:27:05;22.50;99.90
29207;DHT22;16247;50.840;4.382;2023-06-24T08:29:31;22.70;99.90
29207;DHT22;16247;50.840;4.382;2023-06-24T08:31:56;22.90;99.90
29207;DHT22;16247;50.840;4.382;2023-06-24T08:34:22;23.10;99.90
29207;DHT22;16247;50.840;4.382;2023-06-24T08:36:47;23.20;99.90
29207;DHT22;16247;50.840;4.382;2023-06-24T08:39:13;23.50;99.90
29207;DHT22;16247;50.840;4.382;2023-06-24T08:41:39;23.40;99.90
29207;DHT22;16247;50.840;4.382;2023-06-24T08:44:04;23.60;99.90
29207;DHT22;16247;50.840;4.382;2023-06-24T08:46:31;23.70;99.90
29207;DHT22;16247;50.840;4.382;2023-06-24T08:51:58;23.30;99.90
29207;DHT22;16247;50.840;4.382;2023-06-24T08:54:25;23.60;99.90
29207;DHT22;16247;50.840;4.382;2023-06-24T08:56:52;23.60;99.90
29207;DHT22;16247;50.840;4.382;2023-06-24T08:59:18;23.80;99.90
29207;DHT22;16247;50.840;4.382;2023-06-24T09:01:46;23.90;99.90
29207;DHT22;16247;50.840;4.382;2023-06-24T09:04:12;23.90;99.90
29207;DHT22;16247;50.840;4.382;2023-06-24T09:06:38;23.80;99.90
29207;DHT22;16247;50.840;4.382;2023-06-24T09:09:03;24.00;99.90
29207;DHT22;16247;50.840;4.382;2023-06-24T09:11:30;24.10;99.90
29207;DHT22;16247;50.840;4.382;2023-06-24T09:13:58;24.20;99.90
29207;DHT22;16247;50.840;4.382;2023-06-24T09:16:25;24.30;99.90
29207;DHT22;16247;50.840;4.382;2023-06-24T09:18:51;24.30;99.90
29207;DHT22;16247;50.840;4.382;2023-06-24T09:21:24;24.30;99.90
29207;DHT22;16247;50.840;4.382;2023-06-24T09:23:58;24.40;99.90
29207;DHT22;16247;50.840;4.382;2023-06-24T09:26:24;24.40;99.90
29207;DHT22;16247;50.840;4.382;2023-06-24T21:18:49;25.90;99.90
29207;DHT22;16247;50.840;4.382;2023-06-24T21:21:15;25.80;99.90
29207;DHT22;16247;50.840;4.382;2023-06-24T21:23:42;25.50;99.90
29207;DHT22;16247;50.840;4.382;2023-06-24T21:26:07;25.30;99.90
29207;DHT22;16247;50.840;4.382;2023-06-24T21:28:33;25.10;99.90
29207;DHT22;16247;50.840;4.382;2023-06-24T21:30:59;24.90;99.90
29207;DHT22;16247;50.840;4.382;2023-06-24T21:33:25;24.80;99.90
29207;DHT22;16247;50.840;4.382;2023-06-24T21:35:50;24.70;99.90
29207;DHT22;16247;50.840;4.382;2023-06-24T21:38:16;24.70;99.90
29207;DHT22;16247;50.840;4.382;2023-06-24T21:40:42;24.60;99.90
29207;DHT22;16247;50.840;4.382;2023-06-24T21:43:07;24.50;99.90
29207;DHT22;16247;50.840;4.382;2023-06-24T21:45:35;24.40;99.90
29207;DHT22;16247;50.840;4.382;2023-06-24T21:48:00;24.40;99.90
29207;DHT22;16247;50.840;4.382;2023-06-24T21:50:28;24.40;99.90
29207;DHT22;16247;50.840;4.382;2023-06-24T21:52:54;24.50;99.90
29207;DHT22;16247;50.840;4.382;2023-06-24T21:55:19;24.50;99.90
29207;DHT22;16247;50.840;4.382;2023-06-24T21:57:45;24.40;99.90
29207;DHT22;16247;50.840;4.382;2023-06-24T22:00:11;24.50;99.90
29207;DHT22;16247;50.840;4.382;2023-06-24T22:02:47;24.40;99.90
29207;DHT22;16247;50.840;4.382;2023-06-24T22:05:13;24.40;99.90
29207;DHT22;16247;50.840;4.382;2023-06-24T22:07:39;24.50;99.90
29207;DHT22;16247;50.840;4.382;2023-06-24T22:10:05;24.60;99.90
29207;DHT22;16247;50.840;4.382;2023-06-24T22:12:31;24.60;99.90
29207;DHT22;16247;50.840;4.382;2023-06-24T22:14:57;24.60;99.90
29207;DHT22;16247;50.840;4.382;2023-06-24T22:17:22;24.60;99.90
29207;DHT22;16247;50.840;4.382;2023-06-24T22:19:48;24.60;99.90
29207;DHT22;16247;50.840;4.382;2023-06-24T22:22:14;24.50;99.90
29207;DHT22;16247;50.840;4.382;2023-06-24T22:24:39;24.60;99.90
29207;DHT22;16247;50.840;4.382;2023-06-24T22:27:07;24.60;99.90
29207;DHT22;16247;50.840;4.382;2023-06-24T22:29:33;24.70;99.90
29207;DHT22;16247;50.840;4.382;2023-06-24T22:31:59;24.70;99.90
29207;DHT22;16247;50.840;4.382;2023-06-24T22:34:24;24.80;99.90
